Time;durP1;ratioP1;P1;durP2;ratioP2;P2;SDS_P1;SDS_P2;PMS_P1;PMS_P2;Temp;Humidity;BMP_temperature;BMP_pressure;BME280_temperature;BME280_humidity;BME280_pressure;Samples;Min_cycle;Max_cycle;Signal;HPM_P1;HPM_P2
2021/06/02 00:01:55;;;;;;;6.75;3.90;;;;;;;18.58;61.56;101084.97;5070209;28;20090;-65
2021/06/02 00:04:25;;;;;;;9.20;3.83;;;;;;;18.52;61.71;101087.69;5086608;28;20052;-65
2021/06/02 00:06:56;;;;;;;8.50;3.65;;;;;;;18.46;61.72;101084.19;5071614;28;20514;-65
2021/06/02 00:09:24;;;;;;;6.55;3.83;;;;;;;18.46;61.84;101084.19;5051886;28;20040;-65
2021/06/02 00:11:51;;;;;;;5.68;3.60;;;;;;;18.52;61.75;101078.78;5058468;28;20044;-65
2021/06/02 00:14:19;;;;;;;4.95;3.40;;;;;;;18.49;62.02;101074.38;5071084;28;20120;-65
2021/06/02 00:16:47;;;;;;;6.15;3.50;;;;;;;18.52;62.09;101076.09;5071567;28;20037;-65
2021/06/02 00:19:16;;;;;;;8.48;3.78;;;;;;;18.44;62.19;101075.31;5071263;28;20036;-65
2021/06/02 00:21:43;;;;;;;5.70;3.08;;;;;;;18.27;62.25;101072.81;5071414;28;20116;-66
2021/06/02 00:24:11;;;;;;;5.55;3.25;;;;;;;18.20;62.71;101073.78;5071472;28;20500;-66
2021/06/02 00:26:39;;;;;;;10.98;4.00;;;;;;;18.24;62.48;101071.09;5071557;28;20041;-66
2021/06/02 00:29:09;;;;;;;7.07;3.83;;;;;;;18.24;62.45;101079.09;5071400;28;20118;-65
2021/06/02 00:31:39;;;;;;;6.78;3.50;;;;;;;18.16;62.29;101082.75;5071698;28;20499;-65
2021/06/02 00:34:07;;;;;;;7.20;3.67;;;;;;;17.85;62.81;101083.03;5070644;28;20051;-65
2021/06/02 00:36:40;;;;;;;6.32;3.65;;;;;;;17.74;63.62;101084.91;5071070;28;20033;-65
2021/06/02 00:39:08;;;;;;;5.55;3.42;;;;;;;17.85;63.05;101082.19;5071160;28;20047;-65
2021/06/02 00:41:36;;;;;;;8.85;3.65;;;;;;;17.85;62.74;101076.81;5070317;28;20110;-65
2021/06/02 00:44:06;;;;;;;7.72;3.92;;;;;;;17.82;63.03;101067.06;5070665;28;20040;-65
2021/06/02 00:46:36;;;;;;;8.73;3.90;;;;;;;17.84;62.92;101067.94;5070640;28;20043;-65
2021/06/02 00:49:05;;;;;;;6.85;4.32;;;;;;;17.87;62.89;101061.66;5070929;28;20080;-65
2021/06/02 00:51:33;;;;;;;6.93;3.50;;;;;;;17.83;63.03;101068.81;5070843;28;20036;-66
2021/06/02 00:54:03;;;;;;;6.78;3.80;;;;;;;17.79;62.91;101063.50;5071049;28;20043;-65
2021/06/02 00:56:36;;;;;;;6.10;3.13;;;;;;;17.72;62.97;101067.16;5069008;28;20033;-66
2021/06/02 00:59:04;;;;;;;7.13;3.47;;;;;;;17.65;62.87;101052.97;5070997;28;20024;-66
2021/06/02 01:01:34;;;;;;;6.80;3.47;;;;;;;17.66;62.72;101057.38;5069938;28;20448;-65
2021/06/02 01:04:02;;;;;;;12.98;3.85;;;;;;;17.63;62.72;101049.41;5070325;28;20037;-65
2021/06/02 01:06:33;;;;;;;7.55;3.58;;;;;;;17.61;62.22;101043.19;5070554;28;20060;-65
2021/06/02 01:09:05;;;;;;;6.15;3.80;;;;;;;17.60;61.79;101036.03;5070262;28;20054;-66
2021/06/02 01:11:33;;;;;;;7.13;3.47;;;;;;;17.59;61.77;101038.75;5070318;28;20051;-65
2021/06/02 01:14:03;;;;;;;7.25;4.15;;;;;;;17.59;61.89;101047.63;5070404;28;20043;-65
2021/06/02 01:16:31;;;;;;;6.35;4.05;;;;;;;17.54;62.15;101058.34;5070339;28;20037;-65
2021/06/02 01:19:00;;;;;;;7.80;3.30;;;;;;;17.41;62.18;101056.66;5070302;28;20036;-65
2021/06/02 01:21:30;;;;;;;5.50;3.08;;;;;;;17.29;62.34;101050.53;5070553;28;20032;-66
2021/06/02 01:24:00;;;;;;;5.15;3.25;;;;;;;17.18;61.92;101047.97;5070299;28;20044;-65
2021/06/02 01:26:30;;;;;;;7.13;3.42;;;;;;;17.12;61.11;101054.22;5070088;28;20041;-65
2021/06/02 01:28:58;;;;;;;4.65;2.60;;;;;;;17.03;60.63;101059.63;5070298;28;20044;-65
2021/06/02 01:31:44;;;;;;;3.63;2.50;;;;;;;17.00;60.08;101046.28;5069325;28;20044;-65
2021/06/02 01:34:26;;;;;;;5.43;2.65;;;;;;;17.02;59.42;101057.84;5069915;28;20039;-65
2021/06/02 01:37:13;;;;;;;5.25;2.83;;;;;;;17.09;58.92;101058.69;5069495;28;20033;-65
2021/06/02 01:40:20;;;;;;;7.70;3.42;;;;;;;17.12;58.69;101064.03;5069977;28;20123;-66
2021/06/02 01:43:01;;;;;;;7.15;3.47;;;;;;;17.19;58.63;101071.09;5069319;28;20046;-66
2021/06/02 01:45:51;;;;;;;5.93;3.45;;;;;;;16.99;59.09;101075.66;5069239;28;20591;-65
2021/06/02 01:48:29;;;;;;;6.55;3.70;;;;;;;16.97;59.39;101078.31;5070015;28;20029;-65
2021/06/02 01:51:27;;;;;;;5.93;3.38;;;;;;;17.05;59.30;101084.50;5069108;28;20492;-65
2021/06/02 01:54:35;;;;;;;5.53;3.30;;;;;;;16.93;59.51;101089.03;5069549;28;20033;-66
2021/06/02 01:57:44;;;;;;;6.10;3.70;;;;;;;16.86;59.71;101095.28;5066314;28;20043;-66
2021/06/02 02:00:37;;;;;;;5.72;3.15;;;;;;;16.79;59.52;101101.53;5068916;28;22239;-65
2021/06/02 02:03:43;;;;;;;5.25;3.13;;;;;;;16.83;59.31;101096.16;5066458;28;20098;-66
2021/06/02 02:06:45;;;;;;;6.35;3.50;;;;;;;16.80;59.30;101106.88;5068381;28;20050;-65
2021/06/02 02:09:19;;;;;;;6.78;4.03;;;;;;;16.67;59.62;101110.47;5032129;28;20045;-65
2021/06/02 02:11:46;;;;;;;6.60;3.55;;;;;;;16.70;59.60;101108.66;5049917;28;20045;-65
2021/06/02 02:14:58;;;;;;;6.65;3.25;;;;;;;16.64;59.79;101102.47;5049330;28;20040;-64
2021/06/02 02:17:40;;;;;;;5.15;3.50;;;;;;;16.47;60.20;101107.84;5045793;28;20048;-66
2021/06/02 02:20:18;;;;;;;6.90;3.65;;;;;;;16.53;60.12;101105.16;5049580;28;20090;-65
2021/06/02 02:23:14;;;;;;;6.78;3.70;;;;;;;16.69;59.67;101114.88;5049480;28;20040;-65
2021/06/02 02:25:53;;;;;;;4.72;2.80;;;;;;;16.73;59.26;101108.66;5035131;28;20028;-66
2021/06/02 02:28:37;;;;;;;6.18;3.45;;;;;;;16.52;59.70;101108.72;5069181;28;20032;-65
2021/06/02 02:31:16;;;;;;;6.07;3.40;;;;;;;16.43;59.87;101111.38;5069320;28;20055;-65
2021/06/02 02:33:49;;;;;;;5.90;3.03;;;;;;;16.38;59.83;101117.63;5069632;28;20119;-65
2021/06/02 02:36:27;;;;;;;5.00;2.83;;;;;;;16.22;60.13;101127.41;5069007;28;20032;-66
2021/06/02 02:39:11;;;;;;;4.90;3.03;;;;;;;16.15;60.56;101122.97;5069093;28;20089;-65
2021/06/02 02:41:59;;;;;;;4.45;3.15;;;;;;;16.26;60.02;101122.09;5069545;28;20647;-65
2021/06/02 02:44:47;;;;;;;4.97;3.03;;;;;;;16.25;59.73;101117.66;5075586;28;20058;-69
2021/06/02 02:47:18;;;;;;;8.32;3.80;;;;;;;16.24;59.68;101128.31;5054565;28;20036;-65
2021/06/02 02:50:00;;;;;;;5.47;2.92;;;;;;;16.31;59.18;101127.41;5070650;28;20047;-67
2021/06/02 02:52:50;;;;;;;5.47;3.20;;;;;;;16.18;59.40;101139.88;5075114;28;20029;-66
2021/06/02 02:55:20;;;;;;;4.97;3.13;;;;;;;16.18;59.37;101149.63;5075623;28;20213;-65
2021/06/02 02:57:56;;;;;;;5.88;3.08;;;;;;;16.26;59.11;101147.84;5075740;28;20036;-66
2021/06/02 03:00:32;;;;;;;6.28;3.22;;;;;;;16.23;58.95;101153.16;5075712;28;20036;-66
2021/06/02 03:03:06;;;;;;;5.35;3.28;;;;;;;16.16;59.14;101143.41;5075154;28;20571;-65
2021/06/02 03:05:36;;;;;;;;;;;;;;;16.25;58.83;101140.75;5076321;28;20052;-66
2021/06/02 03:08:12;;;;;;;4.78;3.15;;;;;;;16.38;58.40;101141.59;5075930;28;19949;-65
2021/06/02 03:10:43;;;;;;;6.20;3.78;;;;;;;16.47;58.10;101137.16;5075034;28;20504;-65
2021/06/02 03:13:20;;;;;;;5.35;3.15;;;;;;;16.54;58.03;101133.56;5075663;28;20040;-65
2021/06/02 03:15:49;;;;;;;6.32;3.35;;;;;;;16.58;57.93;101150.44;5075457;28;20492;-66
2021/06/02 03:18:43;;;;;;;7.93;3.92;;;;;;;16.60;57.86;101149.59;5074991;28;20443;-65
2021/06/02 03:21:20;;;;;;;9.35;3.40;;;;;;;16.62;58.13;101170.88;5075064;28;20369;-66
2021/06/02 03:24:09;;;;;;;6.85;3.20;;;;;;;16.67;58.31;101167.31;5075227;28;20093;-65
2021/06/02 03:26:41;;;;;;;7.05;2.83;;;;;;;16.71;58.50;101176.22;5075257;28;20455;-66
2021/06/02 03:29:21;;;;;;;3.97;2.53;;;;;;;16.91;58.20;101177.03;5075407;28;20531;-65
2021/06/02 03:32:05;;;;;;;5.13;3.08;;;;;;;17.11;57.87;101191.19;5075457;28;20041;-66
2021/06/02 03:34:43;;;;;;;5.33;2.67;;;;;;;17.15;58.02;101186.72;5075333;28;20048;-66
2021/06/02 03:37:28;;;;;;;5.20;2.67;;;;;;;17.28;57.96;101199.09;5075660;28;20163;-66
2021/06/02 03:40:09;;;;;;;5.35;3.05;;;;;;;17.43;57.58;101192.81;5074766;28;20041;-65
2021/06/02 03:42:47;;;;;;;5.40;2.75;;;;;;;17.55;57.30;101195.41;5075349;28;20559;-65
2021/06/02 03:45:29;;;;;;;10.27;3.17;;;;;;;17.65;57.29;101194.50;5073725;28;20036;-65
2021/06/02 03:48:09;;;;;;;4.13;2.67;;;;;;;17.85;57.24;101194.34;5075058;28;20033;-66
2021/06/02 03:50:49;;;;;;;8.30;2.50;;;;;;;18.04;57.20;101187.97;5075278;28;20411;-66
2021/06/02 03:53:33;;;;;;;4.60;2.40;;;;;;;18.20;57.17;101189.59;5073967;28;20044;-65
2021/06/02 03:56:15;;;;;;;5.03;2.78;;;;;;;18.40;57.03;101196.53;5071728;28;20033;-65
2021/06/02 03:58:55;;;;;;;6.22;2.13;;;;;;;18.60;56.60;101199.94;5071842;28;20040;-65
2021/06/02 04:01:33;;;;;;;3.75;2.00;;;;;;;18.85;56.01;101206.78;5071394;28;20120;-65
2021/06/02 04:04:12;;;;;;;10.27;2.55;;;;;;;19.07;55.60;101211.00;5071599;28;20037;-66
2021/06/02 04:06:46;;;;;;;6.88;2.58;;;;;;;19.32;55.19;101216.03;5071224;28;20057;-66
2021/06/02 04:09:25;;;;;;;;;;;;;;;19.50;54.72;101230.09;5071894;28;20051;-66
2021/06/02 04:12:03;;;;;;;4.15;2.28;;;;;;;19.73;55.10;101227.13;5071555;28;20288;-65
2021/06/02 04:14:32;;;;;;;4.55;2.40;;;;;;;19.89;54.61;101223.28;5070825;28;20041;-66
2021/06/02 04:17:00;;;;;;;5.28;2.40;;;;;;;20.09;53.55;101227.44;5071699;28;20433;-66
2021/06/02 04:19:28;;;;;;;5.63;2.38;;;;;;;20.30;53.04;101224.41;5071836;28;20135;-66
2021/06/02 04:22:01;;;;;;;6.05;2.15;;;;;;;20.52;52.08;101238.38;5071224;28;20490;-65
2021/06/02 04:24:31;;;;;;;3.60;2.17;;;;;;;20.74;51.80;101238.91;5070980;28;20161;-65
2021/06/02 04:26:59;;;;;;;3.30;1.70;;;;;;;20.98;51.49;101233.94;5071082;28;20032;-66
2021/06/02 04:29:27;;;;;;;3.55;2.22;;;;;;;21.24;50.85;101232.56;5071558;28;20115;-66
2021/06/02 04:31:57;;;;;;;3.90;2.17;;;;;;;21.48;50.98;101223.97;5070191;28;20450;-66
2021/06/02 04:34:26;;;;;;;3.78;2.08;;;;;;;21.75;50.00;101227.84;5071081;28;20119;-66
2021/06/02 04:36:54;;;;;;;5.13;1.88;;;;;;;21.98;49.31;101213.91;5071399;28;20068;-66
2021/06/02 04:39:23;;;;;;;5.32;1.95;;;;;;;22.21;48.88;101222.28;5071378;28;20051;-67
2021/06/02 04:41:55;;;;;;;3.50;2.03;;;;;;;22.41;48.05;101225.38;5071288;28;20132;-66
2021/06/02 04:44:24;;;;;;;4.95;2.10;;;;;;;22.69;47.61;101236.28;5050963;28;20041;-66
2021/06/02 04:46:52;;;;;;;4.50;2.20;;;;;;;23.01;47.35;101227.38;5051689;28;20047;-66
2021/06/02 04:49:19;;;;;;;3.55;1.92;;;;;;;23.31;46.51;101230.97;5051163;28;20037;-66
2021/06/02 04:52:17;;;;;;;6.47;2.08;;;;;;;23.64;45.55;101227.28;5051002;28;20493;-66
2021/06/02 04:55:19;;;;;;;4.63;2.33;;;;;;;23.96;44.92;101238.91;5050509;28;20111;-66
2021/06/02 04:58:24;;;;;;;4.90;2.22;;;;;;;24.32;44.62;101244.94;5050609;28;20037;-66
2021/06/02 05:01:30;;;;;;;3.05;1.70;;;;;;;24.71;43.25;101245.38;5070310;28;20054;-66
2021/06/02 05:04:32;;;;;;;5.40;1.98;;;;;;;25.06;42.73;101242.34;5069843;28;20060;-66
2021/06/02 05:07:14;;;;;;;7.70;2.20;;;;;;;25.36;42.31;101234.91;5070203;28;20033;-66
2021/06/02 05:10:06;;;;;;;5.32;1.85;;;;;;;25.73;41.52;101237.97;5070136;28;20048;-66
2021/06/02 05:13:18;;;;;;;3.03;1.75;;;;;;;26.10;41.48;101244.63;5046206;28;20041;-66
2021/06/02 05:16:29;;;;;;;3.40;1.60;;;;;;;26.43;41.18;101253.22;5040770;28;20051;-66
2021/06/02 05:19:49;;;;;;;5.80;1.63;;;;;;;26.68;40.73;101255.75;5065727;28;20051;-66
2021/06/02 05:22:52;;;;;;;3.88;1.80;;;;;;;26.98;40.61;101249.91;5064554;28;20052;-67
2021/06/02 05:26:01;;;;;;;7.32;1.95;;;;;;;27.28;40.08;101242.22;5065865;28;20504;-66
2021/06/02 05:29:01;;;;;;;6.85;2.13;;;;;;;27.49;39.63;101240.34;5062352;28;20496;-66
2021/06/02 05:31:55;;;;;;;7.68;1.95;;;;;;;27.90;38.90;101241.09;5069004;28;20054;-66
2021/06/02 05:34:57;;;;;;;5.72;1.80;;;;;;;28.21;37.48;101245.94;5065124;28;20051;-66
2021/06/02 05:37:47;;;;;;;7.75;2.10;;;;;;;28.19;37.92;101241.53;5048810;28;20044;-66
2021/06/02 05:40:42;;;;;;;10.07;1.88;;;;;;;27.97;37.18;101242.56;5070361;28;20124;-66
2021/06/02 05:43:44;;;;;;;5.38;1.70;;;;;;;28.09;37.25;101243.81;5069486;28;20076;-66
2021/06/02 05:46:43;;;;;;;5.88;2.20;;;;;;;28.22;36.94;101246.84;5069677;28;20127;-66
2021/06/02 05:49:33;;;;;;;8.65;2.08;;;;;;;28.40;36.83;101251.34;5069671;28;20049;-66
2021/06/02 05:52:20;;;;;;;5.88;1.83;;;;;;;28.60;36.77;101251.19;5069106;28;20044;-66
2021/06/02 05:55:12;;;;;;;7.30;2.47;;;;;;;28.31;37.11;101255.38;5069502;28;20040;-67
2021/06/02 05:58:29;;;;;;;6.40;2.15;;;;;;;28.23;36.93;101256.72;5069485;28;20041;-66
2021/06/02 06:01:10;;;;;;;7.60;1.80;;;;;;;28.33;37.38;101261.63;5069156;28;20046;-66
2021/06/02 06:04:20;;;;;;;4.95;2.03;;;;;;;28.46;36.84;101264.59;5069444;28;20064;-66
2021/06/02 06:07:01;;;;;;;3.42;2.15;;;;;;;28.71;36.48;101269.66;5014810;28;20050;-66
2021/06/02 06:10:02;;;;;;;7.07;2.08;;;;;;;28.86;36.23;101277.06;5049406;28;20029;-66
2021/06/02 06:13:04;;;;;;;6.72;1.92;;;;;;;29.13;36.63;101283.78;5058079;28;20396;-66
2021/06/02 06:16:08;;;;;;;9.18;1.95;;;;;;;29.36;35.80;101270.78;5069360;28;20041;-66
2021/06/02 06:19:16;;;;;;;5.85;1.55;;;;;;;29.20;36.45;101281.59;5066927;28;20085;-66
2021/06/02 06:22:05;;;;;;;10.13;1.70;;;;;;;28.60;37.16;101272.94;5068799;28;20052;-66
2021/06/02 06:24:39;;;;;;;6.57;2.60;;;;;;;28.62;36.99;101279.16;5068674;28;20066;-66
2021/06/02 06:27:14;;;;;;;8.05;1.63;;;;;;;29.06;36.39;101293.22;5068898;28;20048;-67
2021/06/02 06:29:53;;;;;;;4.88;1.80;;;;;;;29.53;36.14;101292.53;5069420;28;20129;-66
2021/06/02 06:32:22;;;;;;;6.68;1.70;;;;;;;29.77;35.80;101307.50;5069026;28;20045;-66
2021/06/02 06:34:51;;;;;;;10.35;1.92;;;;;;;29.75;36.22;101314.00;5069100;28;20440;-66
2021/06/02 06:37:21;;;;;;;5.40;1.65;;;;;;;29.72;35.65;101315.06;5069477;28;20036;-66
2021/06/02 06:39:52;;;;;;;5.82;1.70;;;;;;;29.48;36.03;101311.81;5069300;28;20769;-66
2021/06/02 06:42:22;;;;;;;4.50;1.77;;;;;;;29.32;36.21;101319.03;5068797;28;20040;-66
2021/06/02 06:44:54;;;;;;;6.35;2.00;;;;;;;29.31;35.85;101317.25;5068983;28;20079;-66
2021/06/02 06:47:24;;;;;;;9.20;1.75;;;;;;;29.01;36.04;101318.91;5069413;28;20514;-66
2021/06/02 06:49:55;;;;;;;5.72;2.20;;;;;;;28.98;36.95;101317.22;5069259;28;20071;-66
2021/06/02 06:52:25;;;;;;;5.95;2.05;;;;;;;29.27;36.46;101330.16;5069589;28;20047;-66
2021/06/02 06:54:55;;;;;;;6.40;2.03;;;;;;;29.36;36.28;101334.25;5068749;28;20039;-66
2021/06/02 06:57:23;;;;;;;8.32;1.65;;;;;;;28.78;36.95;101330.94;5069216;28;20036;-66
2021/06/02 06:59:50;;;;;;;8.75;2.25;;;;;;;28.81;36.97;101341.69;5068934;28;20538;-66
2021/06/02 07:02:18;;;;;;;7.72;2.05;;;;;;;28.82;37.56;101340.69;5068792;28;20086;-67
2021/06/02 07:04:47;;;;;;;6.50;1.98;;;;;;;28.82;37.09;101351.56;5068715;28;20046;-66
2021/06/02 07:07:15;;;;;;;6.38;2.22;;;;;;;29.04;37.34;101346.78;5069011;28;20455;-65
2021/06/02 07:09:44;;;;;;;7.53;1.77;;;;;;;29.21;36.78;101351.38;5068815;28;20115;-66
2021/06/02 07:12:13;;;;;;;5.15;1.80;;;;;;;29.62;36.35;101357.34;5069216;28;20127;-66
2021/06/02 07:14:41;;;;;;;5.07;1.73;;;;;;;29.73;35.95;101355.78;5068795;28;20040;-66
2021/06/02 07:17:08;;;;;;;5.13;1.70;;;;;;;29.76;36.14;101365.66;5068460;28;20036;-66
2021/06/02 07:19:41;;;;;;;5.80;1.77;;;;;;;29.76;36.02;101368.38;5068876;28;20123;-67
2021/06/02 07:22:09;;;;;;;5.68;1.70;;;;;;;29.56;36.52;101368.56;5068989;28;20033;-66
2021/06/02 07:24:38;;;;;;;10.02;2.15;;;;;;;29.65;36.53;101379.84;5068318;28;20068;-66
2021/06/02 07:27:07;;;;;;;6.15;1.80;;;;;;;29.40;36.44;101381.25;5068491;28;20105;-66
2021/06/02 07:29:34;;;;;;;5.72;1.90;;;;;;;29.41;35.97;101377.53;5069764;28;20170;-66
2021/06/02 07:32:01;;;;;;;5.88;2.00;;;;;;;29.26;36.27;101377.38;5072632;28;20033;-66
2021/06/02 07:34:27;;;;;;;6.80;2.13;;;;;;;29.41;36.02;101386.56;5072238;28;20127;-66
2021/06/02 07:36:55;;;;;;;10.88;2.13;;;;;;;29.66;35.45;101384.34;5072101;28;20116;-66
2021/06/02 07:39:22;;;;;;;6.15;2.00;;;;;;;29.46;35.07;101380.91;5072852;28;20043;-66
2021/06/02 07:41:49;;;;;;;8.40;2.38;;;;;;;28.82;36.79;101384.19;5072580;28;20123;-66
2021/06/02 07:44:17;;;;;;;5.45;1.77;;;;;;;29.07;36.53;101379.28;5072075;28;20122;-66
2021/06/02 07:46:44;;;;;;;7.60;1.95;;;;;;;29.37;35.87;101387.72;5072368;28;20112;-67
2021/06/02 07:49:12;;;;;;;4.85;2.00;;;;;;;29.40;35.43;101390.28;5072299;28;20128;-66
2021/06/02 07:51:39;;;;;;;6.32;1.77;;;;;;;29.35;35.40;101381.47;5072150;28;20132;-66
2021/06/02 07:54:09;;;;;;;7.75;1.45;;;;;;;29.63;35.58;101389.94;5072200;28;20049;-66
2021/06/02 07:56:36;;;;;;;5.50;1.60;;;;;;;29.91;35.02;101391.16;5071594;28;20115;-66
2021/06/02 07:59:04;;;;;;;7.60;1.80;;;;;;;30.14;34.30;101390.78;5071630;28;20040;-66
2021/06/02 08:01:33;;;;;;;6.00;1.55;;;;;;;29.97;34.22;101389.03;5060115;28;20056;-66
2021/06/02 08:04:00;;;;;;;5.53;1.70;;;;;;;30.26;34.38;101383.81;5050276;28;20084;-66
2021/06/02 08:06:27;;;;;;;8.07;1.77;;;;;;;30.53;34.38;101386.81;5066707;28;20109;-66
2021/06/02 08:08:54;;;;;;;4.93;1.88;;;;;;;30.50;34.63;101387.88;5071612;28;20140;-66
2021/06/02 08:11:21;;;;;;;8.93;1.92;;;;;;;30.43;35.07;101395.50;5071666;28;20045;-66
2021/06/02 08:13:48;;;;;;;5.72;2.05;;;;;;;30.40;34.88;101400.22;5071855;28;20388;-66
2021/06/02 08:16:15;;;;;;;8.50;1.92;;;;;;;30.41;34.83;101401.97;5071220;28;20119;-66
2021/06/02 08:18:44;;;;;;;6.50;2.00;;;;;;;30.02;35.13;101400.53;5071226;28;20087;-65
2021/06/02 08:21:11;;;;;;;10.15;1.95;;;;;;;30.12;35.12;101414.53;5071760;28;20036;-65
2021/06/02 08:23:38;;;;;;;4.95;1.52;;;;;;;29.71;35.43;101411.31;5071735;28;20408;-66
2021/06/02 08:26:06;;;;;;;7.10;2.17;;;;;;;29.16;36.18;101405.13;5070894;28;20497;-66
2021/06/02 08:28:34;;;;;;;3.75;1.67;;;;;;;28.86;36.50;101413.88;5071403;28;20432;-66
2021/06/02 08:31:03;;;;;;;8.02;2.05;;;;;;;28.80;36.57;101411.47;5070940;28;20047;-67
2021/06/02 08:33:30;;;;;;;3.72;1.70;;;;;;;28.92;36.17;101412.69;5071194;28;20071;-66
2021/06/02 08:35:59;;;;;;;3.92;1.90;;;;;;;28.88;36.40;101414.66;5070669;28;20132;-67
2021/06/02 08:38:26;;;;;;;6.35;1.48;;;;;;;28.52;36.44;101411.03;5065043;28;20044;-65
2021/06/02 08:40:53;;;;;;;9.30;1.95;;;;;;;28.34;36.85;101417.34;5070358;28;20101;-66
2021/06/02 08:43:20;;;;;;;5.35;1.92;;;;;;;28.22;36.81;101417.94;5071713;28;20036;-65
2021/06/02 08:45:48;;;;;;;6.50;1.80;;;;;;;28.22;36.62;101413.38;5070422;28;20115;-65
2021/06/02 08:48:16;;;;;;;4.55;1.92;;;;;;;28.48;36.71;101425.72;5070710;28;20132;-65
2021/06/02 08:50:43;;;;;;;5.28;1.60;;;;;;;28.70;36.47;101414.66;5070964;28;21136;-66
2021/06/02 08:53:16;;;;;;;6.07;1.73;;;;;;;28.73;36.09;101415.41;5070899;28;20144;-65
2021/06/02 08:55:45;;;;;;;6.72;1.75;;;;;;;29.07;35.88;101406.50;5070379;28;20064;-66
2021/06/02 08:58:17;;;;;;;4.90;1.88;;;;;;;28.89;36.13;101415.53;5069972;28;20052;-66
2021/06/02 09:00:44;;;;;;;5.28;1.80;;;;;;;28.63;36.61;101407.78;5070529;28;20123;-66
2021/06/02 09:03:11;;;;;;;9.23;2.38;;;;;;;28.42;37.16;101407.00;5070458;28;20404;-66
2021/06/02 09:05:39;;;;;;;6.60;2.15;;;;;;;28.53;36.98;101402.81;5070515;28;20036;-66
2021/06/02 09:08:08;;;;;;;6.53;2.13;;;;;;;28.51;36.41;101399.28;5070171;28;20045;-66
2021/06/02 09:10:41;;;;;;;6.20;1.40;;;;;;;28.10;37.39;101409.34;5070715;28;20040;-66
2021/06/02 09:13:16;;;;;;;3.35;1.58;;;;;;;28.36;37.48;101415.41;5070672;28;20036;-66
2021/06/02 09:15:46;;;;;;;5.32;2.17;;;;;;;28.08;37.48;101427.59;5070292;28;20052;-66
2021/06/02 09:18:17;;;;;;;7.55;2.10;;;;;;;27.89;38.26;101420.34;5070321;28;20051;-66
2021/06/02 09:20:46;;;;;;;7.82;1.95;;;;;;;28.48;37.74;101421.19;5070661;28;20044;-66
2021/06/02 09:23:30;;;;;;;4.50;2.05;;;;;;;28.91;36.85;101424.53;5070427;28;20121;-66
2021/06/02 09:26:16;;;;;;;6.20;2.08;;;;;;;29.00;37.09;101415.91;5069791;28;20109;-66
2021/06/02 09:28:56;;;;;;;7.25;2.13;;;;;;;28.88;37.46;101422.81;5069692;28;20111;-66
2021/06/02 09:31:33;;;;;;;7.38;2.17;;;;;;;29.19;37.62;101419.44;5069753;28;20442;-66
2021/06/02 09:34:04;;;;;;;6.07;1.92;;;;;;;29.42;37.26;101425.56;5070353;28;20052;-66
2021/06/02 09:36:33;;;;;;;6.15;1.85;;;;;;;29.61;37.12;101424.50;5069540;28;20510;-66
2021/06/02 09:39:03;;;;;;;5.43;2.20;;;;;;;29.25;37.47;101432.75;5069498;28;20036;-66
2021/06/02 09:41:39;;;;;;;7.80;2.38;;;;;;;28.58;38.70;101428.88;5069531;28;20033;-66
2021/06/02 09:44:17;;;;;;;6.30;2.20;;;;;;;28.91;38.54;101414.53;5069779;28;20562;-66
2021/06/02 09:46:59;;;;;;;9.30;2.05;;;;;;;28.98;37.95;101415.09;5069603;28;20048;-66
2021/06/02 09:49:27;;;;;;;5.97;2.10;;;;;;;29.36;37.74;101406.84;5069155;28;20048;-66
2021/06/02 09:51:54;;;;;;;7.18;2.40;;;;;;;29.64;37.19;101416.19;5067570;28;20412;-66
2021/06/02 09:54:23;;;;;;;9.88;2.20;;;;;;;29.93;36.90;101411.06;5069842;28;20064;-66
2021/06/02 09:56:52;;;;;;;6.43;2.08;;;;;;;30.15;36.91;101408.03;5069748;28;20063;-66
2021/06/02 09:59:19;;;;;;;7.07;2.00;;;;;;;29.81;37.24;101403.50;5069686;28;20037;-67
2021/06/02 10:01:58;;;;;;;5.28;2.17;;;;;;;29.68;37.15;101403.28;5069082;28;20040;-66
2021/06/02 10:04:30;;;;;;;6.80;2.20;;;;;;;29.28;37.87;101405.34;5069050;28;20405;-66
2021/06/02 10:06:57;;;;;;;8.80;2.15;;;;;;;29.70;37.71;101404.97;5069857;28;20044;-67
2021/06/02 10:09:27;;;;;;;10.15;2.28;;;;;;;30.06;37.24;101403.97;5069948;28;20036;-67
2021/06/02 10:12:04;;;;;;;7.75;2.65;;;;;;;29.81;37.98;101407.09;5068847;28;20071;-66
2021/06/02 10:14:32;;;;;;;8.65;2.72;;;;;;;29.77;38.80;101400.09;5049672;28;20048;-66
2021/06/02 10:16:59;;;;;;;9.45;2.83;;;;;;;29.53;39.37;101409.56;5063499;28;20040;-66
2021/06/02 10:19:42;;;;;;;6.43;2.08;;;;;;;28.65;40.26;101409.47;5067863;28;20648;-67
2021/06/02 10:22:20;;;;;;;9.85;2.72;;;;;;;27.97;42.33;101412.72;5069106;28;20105;-66
2021/06/02 10:24:48;;;;;;;9.25;2.53;;;;;;;27.87;42.38;101411.38;5069072;28;20579;-66
2021/06/02 10:27:18;;;;;;;10.20;2.70;;;;;;;27.69;42.62;101424.84;5069409;28;20044;-66
2021/06/02 10:29:47;;;;;;;9.05;2.40;;;;;;;27.50;43.35;101417.56;5069593;28;20036;-66
2021/06/02 10:32:15;;;;;;;11.48;2.65;;;;;;;27.65;43.32;101419.59;5068693;28;20091;-66
2021/06/02 10:34:41;;;;;;;5.88;2.17;;;;;;;27.16;43.88;101429.00;5068977;28;20056;-66
2021/06/02 10:37:12;;;;;;;10.25;2.70;;;;;;;26.80;44.89;101421.41;5069123;28;20036;-66
2021/06/02 10:39:41;;;;;;;7.07;2.90;;;;;;;26.88;44.78;101430.09;5068881;28;20036;-67
2021/06/02 10:42:14;;;;;;;5.65;2.33;;;;;;;27.24;43.83;101433.13;5068804;28;20085;-67
2021/06/02 10:44:48;;;;;;;8.15;2.08;;;;;;;27.42;43.87;101430.56;5069232;28;20516;-66
2021/06/02 10:47:16;;;;;;;9.02;2.45;;;;;;;27.75;43.45;101434.53;5068948;28;20116;-67
2021/06/02 10:49:44;;;;;;;6.18;2.40;;;;;;;27.74;42.72;101428.22;5068955;28;20399;-66
2021/06/02 10:52:10;;;;;;;5.75;1.98;;;;;;;27.00;43.71;101436.00;5068803;28;20047;-67
2021/06/02 10:54:41;;;;;;;5.13;2.00;;;;;;;26.30;45.28;101430.69;5068941;28;20044;-67
2021/06/02 10:57:09;;;;;;;7.53;2.33;;;;;;;26.46;45.48;101437.25;5069050;28;20408;-66
2021/06/02 10:59:37;;;;;;;6.78;2.47;;;;;;;26.89;44.88;101429.19;5069009;28;20119;-66
2021/06/02 11:02:09;;;;;;;7.72;2.00;;;;;;;26.69;44.96;101431.81;5068483;28;20064;-66
2021/06/02 11:04:38;;;;;;;5.68;2.35;;;;;;;26.85;44.71;101432.94;5072285;28;20040;-66
2021/06/02 11:07:15;;;;;;;5.93;2.17;;;;;;;27.40;43.44;101436.06;5072714;28;20075;-67
2021/06/02 11:09:58;;;;;;;5.50;1.80;;;;;;;27.35;42.78;101432.66;5073147;28;20437;-66
2021/06/02 11:12:27;;;;;;;5.53;1.90;;;;;;;27.35;42.42;101433.56;5071602;28;20037;-66
2021/06/02 11:14:54;;;;;;;4.57;1.45;;;;;;;27.32;42.72;101449.06;5072563;28;20504;-66
2021/06/02 11:17:23;;;;;;;5.32;1.52;;;;;;;27.69;41.53;101451.09;5073234;28;20120;-66
2021/06/02 11:19:52;;;;;;;5.22;1.63;;;;;;;27.83;41.46;101454.06;5072685;28;20428;-66
2021/06/02 11:22:21;;;;;;;3.92;2.00;;;;;;;28.31;41.02;101456.41;5072303;28;20107;-66
2021/06/02 11:24:57;;;;;;;2.10;1.17;;;;;;;28.93;39.99;101452.53;5072601;28;20056;-66
2021/06/02 11:27:45;;;;;;;3.95;1.95;;;;;;;29.05;39.50;101451.91;5072193;28;20041;-66
2021/06/02 11:30:22;;;;;;;5.28;2.00;;;;;;;29.16;39.60;101449.50;5071992;28;20041;-66
2021/06/02 11:32:57;;;;;;;3.22;1.40;;;;;;;29.95;38.38;101464.47;5071836;28;20391;-66
2021/06/02 11:35:57;;;;;;;2.97;1.40;;;;;;;30.06;37.50;101458.47;5072008;28;20040;-66
2021/06/02 11:38:25;;;;;;;3.00;1.25;;;;;;;29.69;37.82;101463.09;5072472;28;20572;-66
2021/06/02 11:40:52;;;;;;;4.70;1.17;;;;;;;29.57;38.36;101460.16;5072708;28;20051;-67
2021/06/02 11:43:20;;;;;;;4.60;1.40;;;;;;;29.73;38.13;101472.00;5071972;28;20050;-67
2021/06/02 11:45:48;;;;;;;3.75;1.30;;;;;;;30.02;37.49;101476.78;5071956;28;20041;-67
2021/06/02 11:48:23;;;;;;;4.22;1.30;;;;;;;30.22;36.89;101472.09;5071847;28;20127;-67
2021/06/02 11:50:51;;;;;;;2.58;1.10;;;;;;;29.87;37.21;101472.13;5071784;28;20044;-66
2021/06/02 11:53:18;;;;;;;2.30;0.95;;;;;;;29.30;37.81;101471.47;5072237;28;20083;-67
2021/06/02 11:55:46;;;;;;;4.47;1.40;;;;;;;28.83;38.50;101468.41;5072069;28;20045;-67
2021/06/02 11:58:13;;;;;;;3.90;1.50;;;;;;;28.96;38.25;101460.50;5071994;28;20033;-66
2021/06/02 12:00:41;;;;;;;4.75;1.30;;;;;;;29.02;38.22;101457.50;5071786;28;20039;-67
2021/06/02 12:03:10;;;;;;;3.90;1.48;;;;;;;28.95;38.11;101455.19;5071848;28;20056;-67
2021/06/02 12:05:39;;;;;;;1.90;1.13;;;;;;;28.27;39.50;101465.66;5071782;28;20028;-66